createdAt,value
2017-08-11T00:01:30.638Z,95089.73
2017-08-11T00:03:58.147Z,95081.17
2017-08-11T00:06:25.660Z,95080.61
2017-08-11T00:08:53.218Z,95077.13
2017-08-11T00:11:20.782Z,95075.28
2017-08-11T00:13:48.304Z,95078.86
2017-08-11T00:16:15.813Z,95070.80
2017-08-11T00:18:43.361Z,95072.61
2017-08-11T00:21:10.940Z,95070.99
2017-08-11T00:23:38.473Z,95072.13
2017-08-11T00:26:05.993Z,95075.40
2017-08-11T00:28:33.545Z,95073.44
2017-08-11T00:31:01.059Z,95071.63
2017-08-11T00:33:28.612Z,95078.09
2017-08-11T00:35:56.154Z,95087.17
2017-08-11T00:38:23.698Z,95087.20
2017-08-11T00:40:51.270Z,95083.58
2017-08-11T00:43:18.833Z,95086.11
2017-08-11T00:45:46.349Z,95084.27
2017-08-11T00:48:13.855Z,95085.36
2017-08-11T00:50:41.430Z,95085.77
2017-08-11T00:53:08.935Z,95086.39
2017-08-11T00:55:36.489Z,95086.39
2017-08-11T00:58:04.009Z,95086.02
2017-08-11T01:00:31.513Z,95091.09
2017-08-11T01:02:59.065Z,95091.03
2017-08-11T01:05:26.589Z,95090.48
2017-08-11T01:07:54.092Z,95088.52
2017-08-11T01:10:21.640Z,95083.86
2017-08-11T01:12:49.152Z,95080.55
2017-08-11T01:15:16.704Z,95075.67
2017-08-11T01:17:44.216Z,95074.64
2017-08-11T01:20:11.761Z,95067.75
2017-08-11T01:22:39.303Z,95075.42
2017-08-11T01:25:06.865Z,95072.94
2017-08-11T01:27:34.380Z,95073.62
2017-08-11T01:30:01.886Z,95063.97
2017-08-11T01:32:29.445Z,95065.81
2017-08-11T01:34:56.936Z,95062.50
2017-08-11T01:37:24.441Z,95064.02
2017-08-11T01:39:52.008Z,95065.78
2017-08-11T01:42:19.549Z,95059.95
2017-08-11T01:44:47.045Z,95049.11
2017-08-11T01:47:14.608Z,95055.60
2017-08-11T01:49:42.159Z,95053.73
2017-08-11T01:52:09.657Z,95047.21
2017-08-11T01:54:37.230Z,95037.00
2017-08-11T01:57:04.741Z,95043.11
2017-08-11T01:59:32.233Z,95041.40
2017-08-11T02:01:59.822Z,95035.48
2017-08-11T02:04:27.365Z,95030.78
2017-08-11T02:06:54.867Z,95029.09
2017-08-11T02:09:22.405Z,95026.11
2017-08-11T02:11:49.944Z,95033.09
2017-08-11T02:14:17.483Z,95030.13
2017-08-11T02:16:44.981Z,95027.88
2017-08-11T02:19:12.526Z,95026.38
2017-08-11T02:21:40.039Z,95026.98
2017-08-11T02:24:07.610Z,95032.67
2017-08-11T02:26:35.166Z,95032.30
2017-08-11T02:29:02.689Z,95028.52
2017-08-11T02:31:30.265Z,95022.28
2017-08-11T02:33:57.806Z,95016.84
2017-08-11T02:36:25.309Z,95013.38
2017-08-11T02:38:52.853Z,95012.05
2017-08-11T02:41:20.357Z,95016.98
2017-08-11T02:43:47.897Z,95013.91
2017-08-11T02:46:15.401Z,95018.42
2017-08-11T02:48:42.909Z,95018.09
2017-08-11T02:51:10.454Z,95013.02
2017-08-11T02:53:37.989Z,95022.33
2017-08-11T02:56:05.525Z,95021.56
2017-08-11T02:58:33.017Z,95021.18
2017-08-11T03:01:00.577Z,95021.27
2017-08-11T03:03:28.112Z,95011.13
2017-08-11T03:05:55.618Z,95030.35
2017-08-11T03:08:23.175Z,95027.17
2017-08-11T03:10:50.665Z,95022.78
2017-08-11T03:13:18.182Z,95017.54
2017-08-11T03:15:45.746Z,95023.20
2017-08-11T03:18:13.257Z,95024.54
2017-08-11T03:20:40.805Z,95015.85
2017-08-11T03:23:08.307Z,95021.88
2017-08-11T03:25:35.804Z,95010.70
2017-08-11T03:28:03.356Z,95010.58
2017-08-11T03:30:30.859Z,95005.86
2017-08-11T03:32:58.428Z,95013.77
2017-08-11T03:35:25.973Z,95010.98
2017-08-11T03:37:53.483Z,95018.02
2017-08-11T03:40:20.981Z,95013.32
2017-08-11T03:42:48.517Z,95018.09
2017-08-11T03:45:16.024Z,95020.34
2017-08-11T03:47:43.584Z,95022.00
2017-08-11T03:50:11.094Z,95022.79
2017-08-11T03:52:38.585Z,95021.41
2017-08-11T03:55:06.445Z,95021.95
2017-08-11T03:57:33.946Z,95021.69
2017-08-11T04:00:01.452Z,95015.99
2017-08-11T04:02:29.001Z,95008.83
2017-08-11T04:04:56.530Z,95016.37
2017-08-11T04:07:24.039Z,95005.72
2017-08-11T04:09:51.572Z,95003.19
2017-08-11T04:12:19.072Z,95005.25
2017-08-11T04:14:46.612Z,95011.03
2017-08-11T04:17:14.155Z,95011.02
2017-08-11T04:19:41.689Z,95010.42
2017-08-11T04:22:09.242Z,95012.48
2017-08-11T04:24:36.850Z,95012.81
2017-08-11T04:27:04.358Z,95014.81
2017-08-11T04:29:31.913Z,95014.57
2017-08-11T04:31:59.601Z,95008.52
2017-08-11T04:34:27.108Z,95017.09
2017-08-11T04:36:54.618Z,95011.96
2017-08-11T04:39:22.201Z,95013.80
2017-08-11T04:41:49.726Z,95012.98
2017-08-11T04:44:17.230Z,95008.56
2017-08-11T04:46:44.814Z,95010.56
2017-08-11T04:49:12.322Z,95008.69
2017-08-11T04:51:39.875Z,95016.78
2017-08-11T04:54:07.433Z,95016.69
2017-08-11T04:56:34.946Z,95015.98
2017-08-11T04:59:02.466Z,95025.35
2017-08-11T05:01:30.101Z,95023.48
2017-08-11T05:03:57.614Z,95023.07
2017-08-11T05:06:25.132Z,95029.04
2017-08-11T05:08:52.722Z,95021.52
2017-08-11T05:11:20.284Z,95030.72
2017-08-11T05:13:47.791Z,95020.06
2017-08-11T05:16:15.393Z,95020.74
2017-08-11T05:18:42.928Z,95029.23
2017-08-11T05:21:10.449Z,95033.05
2017-08-11T05:23:38.000Z,95028.95
2017-08-11T05:26:05.528Z,95037.84
2017-08-11T05:28:33.097Z,95032.48
2017-08-11T05:31:00.690Z,95023.00
2017-08-11T05:33:28.283Z,95031.79
2017-08-11T05:35:55.837Z,95025.54
2017-08-11T05:38:23.352Z,95024.33
2017-08-11T05:40:50.974Z,95024.05
2017-08-11T05:43:18.722Z,95024.40
2017-08-11T05:45:46.281Z,95023.95
2017-08-11T05:48:13.822Z,95011.91
2017-08-11T05:50:41.527Z,95029.03
2017-08-11T05:53:09.246Z,95030.08
2017-08-11T05:55:36.868Z,95030.84
2017-08-11T05:58:04.432Z,95027.47
2017-08-11T06:00:31.939Z,95025.28
2017-08-11T06:02:59.650Z,95023.06
2017-08-11T06:05:27.213Z,95005.52
2017-08-11T06:07:54.799Z,95008.63
2017-08-11T06:10:22.415Z,95016.49
2017-08-11T06:12:50.291Z,95013.03
2017-08-11T06:15:17.825Z,95017.44
2017-08-11T06:17:45.465Z,95017.91
2017-08-11T06:20:13.047Z,95007.53
2017-08-11T06:22:40.826Z,95020.81
2017-08-11T06:25:08.526Z,95014.03
2017-08-11T06:27:36.369Z,95012.59
2017-08-11T06:30:04.017Z,95013.20
2017-08-11T06:32:31.582Z,95021.18
2017-08-11T06:35:05.521Z,95019.62
2017-08-11T06:37:33.748Z,95022.15
2017-08-11T06:40:01.592Z,95016.78
2017-08-11T06:42:29.507Z,95017.73
2017-08-11T06:45:04.808Z,95012.62
2017-08-11T06:58:55.588Z,95008.69
2017-08-11T07:01:23.482Z,94997.09
2017-08-11T07:03:51.292Z,95002.12
2017-08-11T07:06:19.530Z,95009.86
2017-08-11T07:08:47.262Z,95005.48
2017-08-11T07:11:14.997Z,95006.28
2017-08-11T07:13:42.550Z,95002.81
2017-08-11T07:16:10.575Z,94998.52
2017-08-11T07:18:38.216Z,94999.93
2017-08-11T07:21:05.809Z,94995.70
2017-08-11T07:23:33.470Z,94991.51
2017-08-11T07:26:01.123Z,94990.33
2017-08-11T07:28:29.395Z,94991.70
2017-08-11T07:30:57.167Z,94994.94
2017-08-11T07:33:24.830Z,94989.03
2017-08-11T07:35:52.594Z,94996.47
2017-08-11T07:38:20.219Z,94980.98
2017-08-11T07:40:47.777Z,94989.83
2017-08-11T07:43:15.436Z,94980.42
2017-08-11T07:45:42.981Z,94987.16
2017-08-11T07:48:10.606Z,94983.38
2017-08-11T07:50:38.759Z,94984.38
2017-08-11T07:53:06.393Z,94981.78
2017-08-11T07:55:34.082Z,94979.92
2017-08-11T07:58:02.455Z,94976.75
2017-08-11T08:00:30.819Z,94971.54
2017-08-11T08:02:58.358Z,94975.80
2017-08-11T08:05:25.923Z,94971.30
2017-08-11T08:07:53.509Z,94970.46
2017-08-11T08:10:21.173Z,94961.05
2017-08-11T08:12:48.704Z,94967.48
2017-08-11T08:15:16.534Z,94965.50
2017-08-11T08:17:44.374Z,94971.91
2017-08-11T08:20:12.087Z,94973.20
2017-08-11T08:22:39.828Z,94966.22
2017-08-11T08:25:07.840Z,94966.52
2017-08-11T08:27:35.436Z,94967.28
2017-08-11T08:30:04.257Z,94959.38
2017-08-11T08:32:31.926Z,94957.17
2017-08-11T08:34:59.662Z,94959.33
2017-08-11T08:37:27.387Z,94960.23
2017-08-11T08:39:55.050Z,94956.88
2017-08-11T08:42:22.613Z,94954.36
2017-08-11T08:44:50.272Z,94958.91
2017-08-11T08:47:17.809Z,94939.77
2017-08-11T08:49:45.535Z,94948.37
2017-08-11T08:52:13.165Z,94944.05
2017-08-11T08:54:40.756Z,94922.92
2017-08-11T08:57:08.398Z,94937.36
2017-08-11T08:59:36.094Z,94930.50
2017-08-11T09:02:04.959Z,94925.85
2017-08-11T09:04:32.593Z,94922.20
2017-08-11T09:07:00.292Z,94926.77
2017-08-11T09:09:45.697Z,94922.48
2017-08-11T09:12:13.890Z,94922.23
2017-08-11T09:14:42.632Z,94917.08
2017-08-11T09:17:10.713Z,94920.36
2017-08-11T09:19:38.547Z,94927.72
2017-08-11T09:22:06.207Z,94916.29
2017-08-11T09:24:33.893Z,94915.33
2017-08-11T09:27:01.909Z,94915.06
2017-08-11T09:29:29.583Z,94915.22
2017-08-11T09:31:58.111Z,94907.56
2017-08-11T09:34:25.911Z,94913.92
2017-08-11T09:37:40.740Z,94910.99
2017-08-11T09:40:08.579Z,94907.91
2017-08-11T09:48:20.003Z,94898.58
2017-08-11T10:27:21.372Z,94863.14
2017-08-11T10:46:30.740Z,94851.86
2017-08-11T10:48:58.851Z,94839.58
2017-08-11T10:51:26.443Z,94840.55
2017-08-11T10:53:54.012Z,94849.77
2017-08-11T10:56:21.667Z,94848.22
2017-08-11T10:58:49.220Z,94837.19
2017-08-11T11:01:16.890Z,94834.88
2017-08-11T11:03:44.586Z,94838.16
2017-08-11T11:06:15.181Z,94839.59
2017-08-11T11:08:50.839Z,94835.75
2017-08-11T11:11:19.547Z,94837.40
2017-08-11T11:13:47.150Z,94834.69
2017-08-11T11:16:14.742Z,94829.21
2017-08-11T11:18:42.543Z,94823.44
2017-08-11T11:21:13.757Z,94824.68
2017-08-11T11:23:41.417Z,94817.83
2017-08-11T11:26:09.093Z,94809.18
2017-08-11T11:28:38.068Z,94804.57
2017-08-11T11:31:05.723Z,94807.70
2017-08-11T11:33:33.310Z,94800.14
2017-08-11T11:36:00.996Z,94795.87
2017-08-11T11:38:28.542Z,94804.61
2017-08-11T11:40:57.117Z,94800.52
2017-08-11T11:43:24.841Z,94794.61
2017-08-11T11:45:52.355Z,94802.17
2017-08-11T11:48:20.625Z,94794.98
2017-08-11T11:50:48.173Z,94789.65
2017-08-11T11:53:15.739Z,94791.31
2017-08-11T11:55:43.363Z,94789.41
2017-08-11T11:58:11.022Z,94777.02
2017-08-11T12:00:39.420Z,94775.41
2017-08-11T12:03:07.258Z,94758.38
2017-08-11T12:05:37.938Z,94761.58
2017-08-11T12:08:10.261Z,94767.53
2017-08-11T12:10:39.228Z,94753.86
2017-08-11T12:13:07.182Z,94767.20
2017-08-11T12:15:34.937Z,94762.28
2017-08-11T12:18:04.104Z,94763.34
2017-08-11T12:20:32.507Z,94757.02
2017-08-11T12:23:01.648Z,94755.68
2017-08-11T12:25:29.422Z,94755.08
2017-08-11T12:27:57.121Z,94747.27
2017-08-11T12:30:24.660Z,94745.00
2017-08-11T12:32:52.453Z,94735.08
2017-08-11T12:35:20.130Z,94742.64
2017-08-11T12:37:47.726Z,94738.46
2017-08-11T12:40:22.352Z,94736.70
2017-08-11T12:42:54.816Z,94737.36
2017-08-11T12:45:24.178Z,94727.45
2017-08-11T12:47:51.764Z,94722.88
2017-08-11T13:06:07.829Z,94710.02
2017-08-11T13:08:35.921Z,94709.77
2017-08-11T13:11:04.539Z,94701.66
2017-08-11T13:13:32.292Z,94698.48
2017-08-11T13:15:59.881Z,94692.44
2017-08-11T13:18:27.431Z,94699.77
2017-08-11T13:20:55.038Z,94700.24
2017-08-11T13:23:26.030Z,94698.66
2017-08-11T13:25:53.595Z,94701.05
2017-08-11T13:28:21.205Z,94698.10
2017-08-11T13:30:48.731Z,94696.97
2017-08-11T13:33:16.333Z,94699.77
2017-08-11T13:35:43.922Z,94697.38
2017-08-11T13:38:11.930Z,94691.91
2017-08-11T13:40:39.585Z,94689.31
2017-08-11T13:43:07.481Z,94691.38
2017-08-11T13:45:35.302Z,94677.25
2017-08-11T13:48:02.956Z,94676.22
2017-08-11T13:50:38.031Z,94685.21
2017-08-11T13:53:06.014Z,94670.33
2017-08-11T13:55:33.757Z,94682.14
2017-08-11T13:58:01.583Z,94681.41
2017-08-11T14:00:29.319Z,94673.98
2017-08-11T14:02:56.965Z,94677.61
2017-08-11T14:05:24.506Z,94681.13
2017-08-11T14:07:52.137Z,94676.50
2017-08-11T14:10:26.712Z,94675.84
2017-08-11T14:12:54.608Z,94681.22
2017-08-11T14:15:22.460Z,94679.80
2017-08-11T14:17:50.037Z,94680.92
2017-08-11T14:30:25.713Z,94678.45
2017-08-11T14:32:53.232Z,94673.59
2017-08-11T14:35:20.769Z,94678.03
2017-08-11T14:37:48.351Z,94672.11
2017-08-11T14:50:24.527Z,94674.60
2017-08-11T14:52:52.106Z,94675.64
2017-08-11T14:55:19.658Z,94671.36
2017-08-11T14:57:47.256Z,94668.11
2017-08-11T15:10:22.951Z,94665.44
2017-08-11T15:12:50.505Z,94646.19
2017-08-11T15:15:18.087Z,94662.24
2017-08-11T15:17:45.613Z,94664.11
2017-08-11T15:20:13.179Z,94661.29
2017-08-11T15:22:40.686Z,94659.25
2017-08-11T15:25:08.209Z,94645.30
2017-08-11T15:27:35.823Z,94651.95
2017-08-11T15:30:03.544Z,94644.77
2017-08-11T15:32:31.097Z,94646.94
2017-08-11T15:34:58.674Z,94650.77
2017-08-11T15:51:37.333Z,94644.52
2017-08-11T15:54:04.909Z,94642.98
2017-08-11T15:56:32.432Z,94638.38
2017-08-11T15:59:00.054Z,94647.89
2017-08-11T16:01:27.576Z,94643.47
2017-08-11T16:03:55.127Z,94644.33
2017-08-11T16:06:22.670Z,94638.86
2017-08-11T16:08:50.222Z,94648.70
2017-08-11T16:11:17.761Z,94652.92
2017-08-11T16:13:45.265Z,94655.00
2017-08-11T16:16:12.826Z,94650.26
2017-08-11T16:18:40.382Z,94653.26
2017-08-11T16:21:07.878Z,94655.92
2017-08-11T16:23:35.439Z,94654.06
2017-08-11T16:26:02.981Z,94651.97
2017-08-11T16:28:30.482Z,94651.67
2017-08-11T16:30:58.037Z,94653.11
2017-08-11T16:33:25.564Z,94654.25
2017-08-11T16:35:53.069Z,94657.16
2017-08-11T16:38:20.612Z,94654.25
2017-08-11T16:40:48.121Z,94654.97
2017-08-11T16:43:15.619Z,94662.02
2017-08-11T16:45:43.182Z,94654.97
2017-08-11T16:48:10.723Z,94656.76
2017-08-11T16:50:38.223Z,94651.47
2017-08-11T16:53:05.769Z,94658.45
2017-08-11T16:55:33.267Z,94659.34
2017-08-11T16:58:00.853Z,94655.09
2017-08-11T17:00:35.963Z,94658.87
2017-08-11T17:03:03.521Z,94656.28
2017-08-11T17:05:31.025Z,94649.28
2017-08-11T17:07:58.531Z,94657.86
2017-08-11T17:10:26.069Z,94664.06
2017-08-11T17:12:53.587Z,94668.48
2017-08-11T17:15:21.133Z,94664.54
2017-08-11T17:17:48.629Z,94669.75
2017-08-11T17:20:23.537Z,94666.88
2017-08-11T17:22:51.037Z,94667.63
2017-08-11T17:25:18.538Z,94673.02
2017-08-11T17:27:46.078Z,94677.22
2017-08-11T17:40:21.514Z,94692.99
2017-08-11T17:42:49.053Z,94686.80
2017-08-11T17:45:16.550Z,94695.80
2017-08-11T17:47:44.103Z,94689.70
2017-08-11T17:50:11.612Z,94694.46
2017-08-11T17:52:39.110Z,94699.23
2017-08-11T17:55:06.649Z,94706.39
2017-08-11T17:57:34.199Z,94711.09
2017-08-11T18:00:01.709Z,94711.77
2017-08-11T18:02:29.254Z,94714.92
2017-08-11T18:04:56.749Z,94713.11
2017-08-11T18:07:24.258Z,94725.30
2017-08-11T18:09:59.485Z,94725.47
2017-08-11T18:12:26.991Z,94728.13
2017-08-11T18:14:54.502Z,94732.53
2017-08-11T18:17:22.034Z,94727.28
2017-08-11T18:19:49.554Z,94735.21
2017-08-11T18:22:17.122Z,94737.69
2017-08-11T18:24:44.672Z,94740.79
2017-08-11T18:27:12.225Z,94741.22
2017-08-11T18:29:39.741Z,94739.73
2017-08-11T18:32:07.498Z,94733.62
2017-08-11T18:34:35.088Z,94736.67
2017-08-11T18:37:02.725Z,94726.41
2017-08-11T18:39:30.437Z,94750.36
2017-08-11T18:41:58.031Z,94747.17
2017-08-11T18:44:25.601Z,94757.14
2017-08-11T18:46:53.120Z,94754.12
2017-08-11T18:49:21.182Z,94753.90
2017-08-11T18:51:48.705Z,94750.98
2017-08-11T18:54:16.322Z,94755.19
2017-08-11T18:56:43.903Z,94760.38
2017-08-11T18:59:11.519Z,94758.28
2017-08-11T19:01:39.091Z,94761.62
2017-08-11T19:04:06.844Z,94754.19
2017-08-11T19:06:34.485Z,94761.72
2017-08-11T19:09:02.640Z,94739.53
2017-08-11T19:11:30.460Z,94755.13
2017-08-11T19:13:58.101Z,94746.94
2017-08-11T19:16:25.645Z,94740.53
2017-08-11T19:18:53.203Z,94741.06
2017-08-11T19:21:20.759Z,94752.40
2017-08-11T19:23:48.345Z,94751.88
2017-08-11T19:26:15.961Z,94753.08
2017-08-11T19:28:43.625Z,94750.26
2017-08-11T19:31:11.171Z,94742.67
2017-08-11T19:33:38.749Z,94751.92
2017-08-11T19:36:08.233Z,94750.44
2017-08-11T19:38:36.450Z,94753.35
2017-08-11T19:41:03.964Z,94746.33
2017-08-11T19:43:31.490Z,94750.16
2017-08-11T19:45:59.033Z,94751.91
2017-08-11T19:48:26.569Z,94755.67
2017-08-11T19:50:54.080Z,94746.52
2017-08-11T19:53:21.622Z,94747.98
2017-08-11T19:55:49.201Z,94750.05
2017-08-11T19:58:16.716Z,94748.56
2017-08-11T20:00:44.227Z,94753.52
2017-08-11T20:03:11.777Z,94749.97
2017-08-11T20:05:39.289Z,94753.23
2017-08-11T20:08:06.873Z,94752.86
2017-08-11T20:10:34.382Z,94753.06
2017-08-11T20:13:01.889Z,94748.95
2017-08-11T20:15:29.436Z,94745.65
2017-08-11T20:17:56.937Z,94753.18
2017-08-11T20:20:24.497Z,94748.75
2017-08-11T20:22:52.004Z,94749.27
2017-08-11T20:25:19.512Z,94746.66
2017-08-11T20:27:47.085Z,94739.92
2017-08-11T20:30:14.598Z,94746.25
2017-08-11T20:32:42.139Z,94741.64
2017-08-11T20:35:09.693Z,94740.53
2017-08-11T20:37:37.289Z,94738.56
2017-08-11T20:40:04.793Z,94736.63
2017-08-11T20:42:32.341Z,94736.24
2017-08-11T20:44:59.936Z,94742.92
2017-08-11T20:47:27.443Z,94746.39
2017-08-11T20:49:55.001Z,94748.52
2017-08-11T20:52:22.505Z,94751.62
2017-08-11T20:54:50.055Z,94744.57
2017-08-11T20:57:17.601Z,94734.27
2017-08-11T20:59:45.114Z,94741.37
2017-08-11T21:02:12.660Z,94743.66
2017-08-11T21:04:40.242Z,94738.59
2017-08-11T21:07:07.752Z,94746.45
2017-08-11T21:09:35.265Z,94747.60
2017-08-11T21:12:02.817Z,94744.25
2017-08-11T21:14:30.389Z,94745.73
2017-08-11T21:16:57.945Z,94738.54
2017-08-11T21:19:25.455Z,94743.72
2017-08-11T21:21:52.966Z,94740.09
2017-08-11T21:24:20.517Z,94742.97
2017-08-11T21:26:48.079Z,94736.52
2017-08-11T21:29:15.589Z,94743.61
2017-08-11T21:31:43.097Z,94740.23
2017-08-11T21:34:10.646Z,94740.99
2017-08-11T21:36:38.149Z,94740.08
2017-08-11T21:39:05.704Z,94738.80
2017-08-11T21:41:33.252Z,94745.47
2017-08-11T21:44:00.808Z,94749.31
2017-08-11T21:46:28.327Z,94743.45
2017-08-11T21:48:55.837Z,94748.83
2017-08-11T21:51:23.392Z,94741.67
2017-08-11T21:53:50.950Z,94752.83
2017-08-11T21:56:18.463Z,94758.83
2017-08-11T21:58:45.982Z,94753.27
2017-08-11T22:01:13.526Z,94763.16
2017-08-11T22:03:41.024Z,94763.39
2017-08-11T22:06:08.646Z,94756.39
2017-08-11T22:08:36.160Z,94753.72
2017-08-11T22:11:03.732Z,94759.47
2017-08-11T22:13:31.354Z,94753.16
2017-08-11T22:15:58.925Z,94766.03
2017-08-11T22:18:26.432Z,94763.98
2017-08-11T22:20:53.937Z,94766.72
2017-08-11T22:23:21.486Z,94762.13
2017-08-11T22:25:48.998Z,94770.85
2017-08-11T22:28:16.548Z,94769.39
2017-08-11T22:30:44.078Z,94770.16
2017-08-11T22:33:11.584Z,94773.25
2017-08-11T22:35:39.132Z,94773.33
2017-08-11T22:38:06.640Z,94760.62
2017-08-11T22:40:34.181Z,94767.43
2017-08-11T22:43:01.723Z,94753.16
2017-08-11T22:45:29.221Z,94754.91
2017-08-11T22:47:56.778Z,94754.07
2017-08-11T22:50:24.285Z,94758.23
2017-08-11T22:52:51.781Z,94755.03
2017-08-11T22:55:19.323Z,94751.23
2017-08-11T22:57:46.833Z,94755.03
2017-08-11T23:00:14.378Z,94752.55
2017-08-11T23:02:41.938Z,94750.73
2017-08-11T23:05:09.457Z,94754.31
2017-08-11T23:07:36.972Z,94752.30
2017-08-11T23:10:04.511Z,94754.58
2017-08-11T23:12:32.050Z,94751.91
2017-08-11T23:14:59.664Z,94747.23
2017-08-11T23:17:27.173Z,94748.91
2017-08-11T23:19:54.741Z,94739.20
2017-08-11T23:22:22.236Z,94744.42
2017-08-11T23:24:49.741Z,94748.42
2017-08-11T23:27:17.290Z,94736.55
2017-08-11T23:29:44.805Z,94732.20
2017-08-11T23:32:12.303Z,94740.31
2017-08-11T23:34:39.866Z,94738.45
2017-08-11T23:37:07.377Z,94736.96
2017-08-11T23:39:34.886Z,94739.25
2017-08-11T23:42:02.456Z,94739.25
2017-08-11T23:44:29.964Z,94743.09
2017-08-11T23:46:57.475Z,94744.05
2017-08-11T23:49:25.030Z,94748.24
2017-08-11T23:51:52.540Z,94745.05
2017-08-11T23:54:20.074Z,94745.80
2017-08-11T23:56:47.569Z,94742.07
2017-08-11T23:59:15.118Z,94746.80
